createdAt,value
2019-02-07T00:02:04.818Z,99.90
2019-02-07T00:04:35.272Z,99.90
2019-02-07T00:07:06.075Z,99.90
2019-02-07T00:09:36.595Z,99.90
2019-02-07T00:12:06.965Z,99.90
2019-02-07T00:14:39.800Z,99.90
2019-02-07T00:17:09.364Z,99.90
2019-02-07T00:19:39.768Z,99.90
2019-02-07T00:22:10.952Z,99.90
2019-02-07T00:24:43.148Z,99.90
2019-02-07T00:27:13.351Z,99.90
2019-02-07T00:29:43.837Z,99.90
2019-02-07T00:32:14.257Z,99.90
2019-02-07T00:34:45.251Z,99.90
2019-02-07T00:37:15.711Z,99.90
2019-02-07T00:39:46.355Z,99.90
2019-02-07T00:42:16.901Z,99.90
2019-02-07T00:44:51.126Z,99.90
2019-02-07T00:47:20.103Z,99.90
2019-02-07T00:49:50.647Z,99.90
2019-02-07T00:52:20.986Z,99.90
2019-02-07T00:54:51.983Z,99.90
2019-02-07T00:57:22.423Z,99.90
2019-02-07T00:59:55.802Z,99.90
2019-02-07T01:02:26.535Z,99.90
2019-02-07T01:04:56.949Z,99.90
2019-02-07T01:07:27.383Z,99.90
2019-02-07T01:09:58.169Z,99.90
2019-02-07T01:12:28.991Z,99.90
2019-02-07T01:15:01.996Z,99.90
2019-02-07T01:17:31.719Z,99.90
2019-02-07T01:20:02.156Z,99.90
2019-02-07T01:22:32.515Z,99.90
2019-02-07T01:25:03.015Z,99.90
2019-02-07T01:27:33.933Z,99.90
2019-02-07T01:30:06.173Z,99.90
2019-02-07T01:32:36.605Z,99.90
2019-02-07T01:35:07.475Z,99.90
2019-02-07T01:37:39.845Z,99.90
2019-02-07T01:40:12.997Z,99.90
2019-02-07T01:42:44.641Z,99.90
2019-02-07T01:45:18.397Z,99.90
2019-02-07T01:47:49.379Z,99.90
2019-02-07T01:50:21.887Z,99.90
2019-02-07T01:52:53.207Z,99.90
2019-02-07T01:55:23.692Z,99.90
2019-02-07T01:57:54.297Z,99.90
2019-02-07T02:00:24.999Z,99.90
2019-02-07T02:02:55.805Z,99.90
2019-02-07T02:05:26.215Z,99.90
2019-02-07T02:07:56.733Z,99.90
2019-02-07T02:10:28.401Z,99.90
2019-02-07T02:12:59.809Z,99.90
2019-02-07T02:15:30.223Z,99.90
2019-02-07T02:18:00.913Z,99.90
2019-02-07T02:20:31.277Z,99.90
2019-02-07T02:23:01.689Z,99.90
2019-02-07T02:25:32.148Z,99.90
2019-02-07T02:28:02.523Z,99.90
2019-02-07T02:30:35.084Z,99.90
2019-02-07T02:33:06.439Z,99.90
2019-02-07T02:35:36.823Z,99.90
2019-02-07T02:38:07.322Z,99.90
2019-02-07T02:40:38.698Z,99.90
2019-02-07T02:43:09.152Z,99.90
2019-02-07T02:45:39.842Z,99.90
2019-02-07T02:48:10.577Z,99.90
2019-02-07T02:50:41.179Z,99.90
2019-02-07T02:53:11.597Z,99.90
2019-02-07T02:55:43.800Z,99.90
2019-02-07T02:58:15.228Z,99.90
2019-02-07T03:01:11.180Z,99.90
2019-02-07T03:04:16.049Z,99.90
2019-02-07T03:07:04.295Z,99.90
2019-02-07T03:10:11.977Z,99.90
2019-02-07T03:13:04.376Z,99.90
2019-02-07T03:15:51.425Z,99.90
2019-02-07T03:18:39.675Z,99.90
2019-02-07T03:21:27.664Z,99.90
2019-02-07T03:24:15.927Z,99.90
2019-02-07T03:27:11.178Z,99.90
2019-02-07T03:29:59.070Z,99.90
2019-02-07T03:32:57.162Z,99.90
2019-02-07T03:35:55.567Z,99.90
2019-02-07T03:38:47.931Z,99.90
2019-02-07T03:41:35.318Z,99.90
2019-02-07T03:44:31.881Z,99.90
2019-02-07T03:47:15.331Z,99.90
2019-02-07T03:50:04.799Z,99.90
2019-02-07T03:52:51.372Z,99.90
2019-02-07T03:55:49.980Z,99.90
2019-02-07T03:58:46.662Z,99.90
2019-02-07T04:01:38.155Z,99.90
2019-02-07T04:04:26.357Z,99.90
2019-02-07T04:07:14.211Z,99.90
2019-02-07T04:10:01.235Z,99.90
2019-02-07T04:12:58.441Z,99.90
2019-02-07T04:15:46.491Z,99.90
2019-02-07T04:18:35.881Z,99.90
2019-02-07T04:21:31.447Z,99.90
2019-02-07T04:24:29.575Z,99.90
2019-02-07T04:27:31.204Z,99.90
2019-02-07T04:30:35.759Z,99.90
2019-02-07T04:33:24.413Z,99.90
2019-02-07T04:36:26.633Z,99.90
2019-02-07T04:39:28.242Z,99.90
2019-02-07T04:42:32.819Z,99.90
2019-02-07T04:45:21.420Z,99.90
2019-02-07T04:48:11.287Z,99.90
2019-02-07T04:50:59.326Z,99.90
2019-02-07T04:53:51.975Z,99.90
2019-02-07T04:56:40.954Z,99.90
2019-02-07T04:59:30.387Z,99.90
2019-02-07T05:02:18.409Z,99.90
2019-02-07T05:05:07.786Z,99.90
2019-02-07T05:07:55.832Z,99.90
2019-02-07T05:10:44.290Z,99.90
2019-02-07T05:13:36.785Z,99.90
2019-02-07T05:16:39.305Z,99.90
2019-02-07T05:19:23.712Z,99.90
2019-02-07T05:22:11.889Z,99.90
2019-02-07T05:25:19.291Z,99.90
2019-02-07T05:28:05.055Z,99.90
2019-02-07T05:30:54.455Z,99.90
2019-02-07T05:33:46.869Z,99.90
2019-02-07T05:36:36.923Z,99.90
2019-02-07T05:39:46.826Z,99.90
2019-02-07T05:42:44.038Z,99.90
2019-02-07T05:45:25.778Z,99.90
2019-02-07T05:48:21.030Z,99.90
2019-02-07T05:51:09.405Z,99.90
2019-02-07T05:54:14.098Z,99.90
2019-02-07T05:57:12.578Z,99.90
2019-02-07T06:00:03.429Z,99.90
2019-02-07T06:02:47.199Z,99.90
2019-02-07T06:05:36.515Z,99.90
2019-02-07T06:08:23.602Z,99.90
2019-02-07T06:11:24.935Z,99.90
2019-02-07T06:14:23.688Z,99.90
2019-02-07T06:17:14.771Z,99.90
2019-02-07T06:20:08.558Z,99.90
2019-02-07T06:22:56.648Z,99.90
2019-02-07T06:25:44.821Z,99.90
2019-02-07T06:28:34.164Z,99.90
2019-02-07T06:31:41.228Z,99.90
2019-02-07T06:34:29.724Z,99.90
2019-02-07T06:37:15.710Z,99.90
2019-02-07T06:40:03.757Z,99.90
2019-02-07T06:43:03.494Z,99.90
2019-02-07T06:45:46.697Z,99.90
2019-02-07T06:48:39.291Z,99.90
2019-02-07T06:51:28.632Z,99.90
2019-02-07T06:54:18.284Z,99.90
2019-02-07T06:57:05.486Z,99.90
2019-02-07T06:59:58.392Z,99.90
2019-02-07T07:02:37.016Z,99.90
2019-02-07T07:05:45.314Z,99.90
2019-02-07T07:08:37.586Z,99.90
2019-02-07T07:11:36.096Z,99.90
2019-02-07T07:14:14.414Z,99.90
2019-02-07T07:17:10.878Z,99.90
2019-02-07T07:20:12.170Z,99.90
2019-02-07T07:23:01.489Z,99.90
2019-02-07T07:26:09.540Z,99.90
2019-02-07T07:29:00.085Z,99.90
2019-02-07T07:31:49.955Z,99.90
2019-02-07T07:34:30.023Z,99.90
2019-02-07T07:37:18.751Z,99.90
2019-02-07T07:40:11.264Z,99.90
2019-02-07T07:43:06.278Z,99.90
2019-02-07T07:46:02.342Z,99.90
2019-02-07T07:48:50.620Z,99.90
2019-02-07T07:51:52.330Z,99.90
2019-02-07T07:54:51.403Z,99.90
2019-02-07T07:57:40.678Z,99.90
2019-02-07T08:00:34.793Z,99.90
2019-02-07T08:03:43.162Z,99.90
2019-02-07T08:06:32.499Z,99.90
2019-02-07T08:09:30.846Z,99.90
2019-02-07T08:12:19.017Z,99.90
2019-02-07T08:15:05.382Z,99.90
2019-02-07T08:17:57.899Z,99.90
2019-02-07T08:20:56.114Z,99.90
2019-02-07T08:23:54.532Z,99.90
2019-02-07T08:26:42.516Z,99.90
2019-02-07T08:29:35.266Z,99.90
2019-02-07T08:32:42.554Z,99.90
2019-02-07T08:35:25.396Z,99.90
2019-02-07T08:38:27.302Z,99.90
2019-02-07T08:41:28.992Z,99.90
2019-02-07T08:44:36.528Z,99.90
2019-02-07T08:47:18.522Z,99.90
2019-02-07T08:50:00.250Z,99.90
2019-02-07T08:52:59.937Z,99.90
2019-02-07T08:55:57.341Z,99.90
2019-02-07T08:58:49.719Z,99.90
2019-02-07T09:01:43.714Z,99.90
2019-02-07T09:04:41.851Z,99.90
2019-02-07T09:07:26.080Z,99.90
2019-02-07T09:10:20.372Z,99.90
2019-02-07T09:13:08.664Z,99.90
2019-02-07T09:16:07.079Z,99.90
2019-02-07T09:18:51.910Z,99.90
2019-02-07T09:21:50.220Z,99.90
2019-02-07T09:24:44.443Z,99.90
2019-02-07T09:27:36.562Z,99.90
2019-02-07T09:30:32.616Z,99.90
2019-02-07T09:33:17.058Z,99.90
2019-02-07T09:36:15.237Z,99.90
2019-02-07T09:39:03.974Z,99.90
2019-02-07T09:42:12.849Z,99.90
2019-02-07T09:45:01.037Z,99.90
2019-02-07T09:47:50.464Z,99.90
2019-02-07T09:50:52.166Z,99.90
2019-02-07T09:53:56.598Z,99.90
2019-02-07T09:56:45.884Z,99.90
2019-02-07T09:59:33.845Z,99.90
2019-02-07T10:02:26.058Z,99.40
2019-02-07T10:05:15.462Z,98.10
2019-02-07T10:08:12.860Z,94.60
2019-02-07T10:11:17.488Z,94.60
2019-02-07T10:14:06.904Z,94.20
2019-02-07T10:16:55.732Z,92.30
2019-02-07T10:19:43.874Z,89.60
2019-02-07T10:22:28.406Z,90.30
2019-02-07T10:25:17.778Z,86.40
2019-02-07T10:27:56.594Z,88.70
2019-02-07T10:30:43.349Z,80.20
2019-02-07T10:33:32.866Z,81.10
2019-02-07T10:36:28.000Z,77.60
2019-02-07T10:39:13.664Z,75.90
2019-02-07T10:42:02.292Z,75.70
2019-02-07T10:44:57.634Z,73.90
2019-02-07T10:47:45.695Z,71.80
2019-02-07T10:50:30.118Z,70.60
2019-02-07T10:53:14.945Z,71.30
2019-02-07T10:56:01.358Z,68.90
2019-02-07T10:58:44.940Z,67.80
2019-02-07T11:01:42.639Z,67.10
2019-02-07T11:04:34.858Z,65.90
2019-02-07T11:07:17.511Z,64.00
2019-02-07T11:10:07.436Z,63.20
2019-02-07T11:12:55.298Z,59.70
2019-02-07T11:15:52.656Z,58.60
2019-02-07T11:18:55.331Z,58.30
2019-02-07T11:21:37.853Z,60.00
2019-02-07T11:24:33.201Z,58.70
2019-02-07T11:27:38.090Z,58.10
2019-02-07T11:30:50.281Z,58.80
2019-02-07T11:33:38.716Z,57.70
2019-02-07T11:36:37.128Z,57.90
2019-02-07T11:39:30.026Z,57.60
2019-02-07T11:42:29.798Z,56.60
2019-02-07T11:45:25.846Z,57.70
2019-02-07T11:48:30.583Z,57.00
2019-02-07T11:51:13.632Z,57.80
2019-02-07T11:53:57.440Z,57.60
2019-02-07T11:56:49.587Z,56.80
2019-02-07T11:59:37.624Z,57.50
2019-02-07T12:02:33.210Z,57.70
2019-02-07T12:05:21.380Z,57.50
2019-02-07T12:08:19.984Z,57.40
2019-02-07T12:11:24.409Z,57.50
2019-02-07T12:14:16.262Z,56.90
2019-02-07T12:17:23.093Z,57.20
2019-02-07T12:20:18.031Z,58.10
2019-02-07T12:23:08.442Z,58.30
2019-02-07T12:25:59.558Z,57.40
2019-02-07T12:28:49.120Z,57.90
2019-02-07T12:31:47.796Z,57.70
2019-02-07T12:34:55.754Z,57.70
2019-02-07T12:37:48.228Z,57.70
2019-02-07T12:40:43.682Z,58.20
2019-02-07T12:43:31.592Z,58.40
2019-02-07T12:46:33.522Z,58.40
2019-02-07T12:49:28.993Z,58.00
2019-02-07T12:52:09.722Z,57.00
2019-02-07T12:55:02.099Z,55.90
2019-02-07T12:57:51.262Z,55.90
2019-02-07T13:00:40.043Z,57.00
2019-02-07T13:03:36.588Z,57.20
2019-02-07T13:06:28.521Z,56.50
2019-02-07T13:09:23.683Z,57.00
2019-02-07T13:12:16.014Z,56.60
2019-02-07T13:15:00.497Z,56.20
2019-02-07T13:17:52.241Z,57.80
2019-02-07T13:20:57.447Z,58.70
2019-02-07T13:23:52.988Z,58.90
2019-02-07T13:26:45.281Z,60.80
2019-02-07T13:29:33.576Z,62.30
2019-02-07T13:32:24.231Z,63.20
2019-02-07T13:35:31.907Z,64.50
2019-02-07T13:38:14.125Z,65.40
2019-02-07T13:41:02.211Z,65.70
2019-02-07T13:43:50.224Z,66.30
2019-02-07T13:46:27.797Z,65.90
2019-02-07T13:49:19.899Z,65.70
2019-02-07T13:52:12.004Z,66.20
2019-02-07T13:55:19.594Z,66.00
2019-02-07T13:58:18.201Z,66.40
2019-02-07T14:01:10.528Z,66.40
2019-02-07T14:04:00.113Z,66.00
2019-02-07T14:06:48.380Z,65.20
2019-02-07T14:09:50.095Z,65.80
2019-02-07T14:12:28.206Z,65.30
2019-02-07T14:15:17.523Z,65.60
2019-02-07T14:18:05.548Z,65.80
2019-02-07T14:20:57.723Z,66.30
2019-02-07T14:23:43.303Z,65.40
2019-02-07T14:26:31.151Z,65.00
2019-02-07T14:29:13.093Z,65.00
2019-02-07T14:32:20.959Z,65.70
2019-02-07T14:35:16.278Z,66.10
2019-02-07T14:38:03.455Z,67.80
2019-02-07T14:40:44.073Z,71.80
2019-02-07T14:43:32.214Z,76.60
2019-02-07T14:46:15.420Z,78.60
2019-02-07T14:48:45.809Z,81.70
2019-02-07T14:51:16.546Z,82.60
2019-02-07T14:53:46.979Z,81.40
2019-02-07T14:56:17.715Z,79.80
2019-02-07T14:58:48.427Z,79.60
2019-02-07T15:01:18.926Z,80.70
2019-02-07T15:03:49.232Z,80.40
2019-02-07T15:06:19.661Z,79.30
2019-02-07T15:08:49.977Z,80.80
2019-02-07T15:11:21.235Z,80.40
2019-02-07T15:13:51.905Z,80.40
2019-02-07T15:16:22.350Z,80.80
2019-02-07T15:18:52.739Z,81.30
2019-02-07T15:21:23.157Z,82.40
2019-02-07T15:23:53.539Z,83.10
2019-02-07T15:26:24.001Z,83.70
2019-02-07T15:28:54.351Z,83.70
2019-02-07T15:31:24.969Z,83.90
2019-02-07T15:33:55.340Z,84.70
2019-02-07T15:36:25.775Z,85.80
2019-02-07T15:38:56.184Z,86.10
2019-02-07T15:41:27.034Z,86.30
2019-02-07T15:43:57.748Z,86.80
2019-02-07T15:46:28.445Z,88.00
2019-02-07T15:49:02.481Z,87.60
2019-02-07T15:51:34.085Z,88.50
2019-02-07T15:54:05.830Z,89.40
2019-02-07T15:56:36.233Z,89.50
2019-02-07T15:59:23.709Z,90.20
2019-02-07T16:02:11.854Z,90.20
2019-02-07T16:04:45.770Z,90.60
2019-02-07T16:07:16.760Z,90.70
2019-02-07T16:09:47.279Z,90.80
2019-02-07T16:12:18.750Z,91.20
2019-02-07T16:14:49.284Z,91.00
2019-02-07T16:17:19.698Z,91.30
2019-02-07T16:19:50.095Z,91.70
2019-02-07T16:22:21.919Z,92.10
2019-02-07T16:24:52.365Z,91.90
2019-02-07T16:27:23.371Z,92.00
2019-02-07T16:29:53.764Z,92.40
2019-02-07T16:32:24.295Z,92.70
2019-02-07T16:34:54.820Z,92.80
2019-02-07T16:37:25.312Z,93.00
2019-02-07T16:39:56.568Z,93.00
2019-02-07T16:42:26.979Z,93.20
2019-02-07T16:44:57.329Z,93.10
2019-02-07T16:47:27.756Z,93.10
2019-02-07T16:49:58.108Z,93.90
2019-02-07T16:52:29.746Z,94.00
2019-02-07T16:55:00.211Z,94.00
2019-02-07T16:57:31.053Z,93.90
2019-02-07T17:00:01.451Z,94.10
2019-02-07T17:02:33.166Z,94.50
2019-02-07T17:05:03.598Z,95.20
2019-02-07T17:07:34.307Z,94.70
2019-02-07T17:10:07.740Z,95.20
2019-02-07T17:12:38.183Z,95.10
2019-02-07T17:15:11.559Z,95.20
2019-02-07T17:17:42.380Z,95.80
2019-02-07T17:20:32.025Z,96.30
2019-02-07T17:23:02.657Z,96.30
2019-02-07T17:25:33.109Z,96.60
2019-02-07T17:28:03.542Z,97.00
2019-02-07T17:30:35.118Z,97.20
2019-02-07T17:33:05.601Z,97.80
2019-02-07T17:35:36.283Z,98.50
2019-02-07T17:38:07.103Z,99.50
2019-02-07T17:40:37.661Z,99.90
2019-02-07T17:43:08.054Z,99.90
2019-02-07T17:45:38.477Z,99.90
2019-02-07T17:48:08.976Z,99.90
2019-02-07T17:50:39.464Z,99.90
2019-02-07T17:53:10.089Z,99.90
2019-02-07T17:55:40.587Z,99.90
2019-02-07T17:58:12.719Z,99.90
2019-02-07T18:00:53.273Z,99.90
2019-02-07T18:03:23.704Z,99.90
2019-02-07T18:05:54.445Z,99.90
2019-02-07T18:08:25.151Z,99.90
2019-02-07T18:10:56.051Z,99.90
2019-02-07T18:13:26.633Z,99.90
2019-02-07T18:15:57.807Z,99.90
2019-02-07T18:18:28.563Z,99.90
2019-02-07T18:20:59.421Z,99.90
2019-02-07T18:23:30.429Z,99.90
2019-02-07T18:26:01.357Z,99.90
2019-02-07T18:28:31.787Z,99.90
2019-02-07T18:31:02.741Z,99.90
2019-02-07T18:33:35.247Z,99.90
2019-02-07T18:36:05.831Z,99.90
2019-02-07T18:38:36.259Z,99.90
2019-02-07T18:41:07.602Z,99.90
2019-02-07T18:43:38.165Z,99.90
2019-02-07T18:46:08.836Z,99.90
2019-02-07T18:48:39.355Z,99.90
2019-02-07T18:51:10.183Z,99.90
2019-02-07T18:53:40.769Z,99.90
2019-02-07T18:56:11.225Z,99.90
2019-02-07T18:58:42.098Z,99.90
2019-02-07T19:01:12.477Z,99.90
2019-02-07T19:03:43.189Z,99.90
2019-02-07T19:06:13.891Z,99.90
2019-02-07T19:08:44.341Z,99.90
2019-02-07T19:11:17.817Z,99.90
2019-02-07T19:13:48.163Z,99.90
2019-02-07T19:16:19.621Z,99.90
2019-02-07T19:18:53.781Z,99.90
2019-02-07T19:21:24.935Z,99.90
2019-02-07T19:23:55.521Z,99.90
2019-02-07T19:26:25.961Z,99.90
2019-02-07T19:28:56.339Z,99.90
2019-02-07T19:31:27.454Z,99.90
2019-02-07T19:33:57.979Z,99.90
2019-02-07T19:36:28.451Z,99.90
2019-02-07T19:39:00.337Z,99.90
2019-02-07T19:41:30.729Z,99.90
2019-02-07T19:44:04.399Z,99.90
2019-02-07T19:46:35.059Z,99.90
2019-02-07T19:49:05.935Z,99.90
2019-02-07T19:51:36.463Z,99.90
2019-02-07T19:54:06.826Z,99.90
2019-02-07T19:56:37.247Z,99.90
2019-02-07T19:59:08.447Z,99.90
2019-02-07T20:01:39.301Z,99.90
2019-02-07T20:04:09.737Z,99.90
2019-02-07T20:06:41.618Z,99.90
2019-02-07T20:09:13.818Z,99.90
2019-02-07T20:11:44.634Z,99.90
2019-02-07T20:14:15.053Z,99.90
2019-02-07T20:16:45.941Z,99.90
2019-02-07T20:19:16.577Z,99.90
2019-02-07T20:21:47.369Z,99.90
2019-02-07T20:24:17.790Z,99.90
2019-02-07T20:26:48.707Z,99.90
2019-02-07T20:29:19.335Z,99.90
2019-02-07T20:31:51.231Z,99.90
2019-02-07T20:34:22.000Z,99.90
2019-02-07T20:36:52.379Z,99.90
2019-02-07T20:39:22.852Z,99.90
2019-02-07T20:41:54.012Z,99.90
2019-02-07T20:44:25.689Z,99.90
2019-02-07T20:46:56.251Z,99.90
2019-02-07T20:49:26.747Z,99.90
2019-02-07T20:51:57.145Z,99.90
2019-02-07T20:54:27.923Z,99.90
2019-02-07T20:56:58.814Z,99.90
2019-02-07T20:59:29.386Z,99.90
2019-02-07T21:01:59.813Z,99.90
2019-02-07T21:04:30.274Z,99.90
2019-02-07T21:07:00.810Z,99.90
2019-02-07T21:09:31.546Z,99.90
2019-02-07T21:12:02.815Z,99.90
2019-02-07T21:14:33.373Z,99.90
2019-02-07T21:17:04.180Z,99.90
2019-02-07T21:19:34.596Z,99.90
2019-02-07T21:22:06.171Z,99.90
2019-02-07T21:24:36.684Z,99.90
2019-02-07T21:27:07.284Z,99.90
2019-02-07T21:29:37.708Z,99.90
2019-02-07T21:32:08.089Z,99.90
2019-02-07T21:34:38.542Z,99.90
2019-02-07T21:37:09.359Z,99.90
2019-02-07T21:39:40.868Z,99.90
2019-02-07T21:42:11.447Z,99.90
2019-02-07T21:44:42.058Z,99.90
2019-02-07T21:47:12.484Z,99.90
2019-02-07T21:49:43.214Z,99.90
2019-02-07T21:52:13.603Z,99.90
2019-02-07T21:54:44.000Z,99.90
2019-02-07T21:57:14.519Z,99.90
2019-02-07T21:59:45.001Z,99.90
2019-02-07T22:02:15.588Z,99.90
2019-02-07T22:04:46.212Z,99.90
2019-02-07T22:07:16.970Z,99.90
2019-02-07T22:09:48.027Z,99.90
2019-02-07T22:12:18.488Z,99.90
2019-02-07T22:14:49.322Z,99.90
2019-02-07T22:17:20.964Z,99.90
2019-02-07T22:19:51.416Z,99.90
2019-02-07T22:22:22.582Z,99.90
2019-02-07T22:24:53.033Z,99.90
2019-02-07T22:27:23.745Z,99.90
2019-02-07T22:29:54.268Z,99.90
2019-02-07T22:32:25.174Z,99.90
2019-02-07T22:34:55.584Z,99.90
2019-02-07T22:37:26.373Z,99.90
2019-02-07T22:39:56.804Z,99.90
2019-02-07T22:42:27.235Z,99.90
2019-02-07T22:44:57.612Z,99.90
2019-02-07T22:47:27.973Z,99.90
2019-02-07T22:49:58.443Z,99.90
2019-02-07T22:52:28.866Z,99.90
2019-02-07T22:54:59.396Z,99.90
2019-02-07T22:57:30.536Z,99.90
2019-02-07T23:00:01.157Z,99.90
2019-02-07T23:02:32.346Z,99.90
2019-02-07T23:05:04.724Z,99.90
2019-02-07T23:07:35.790Z,99.90
2019-02-07T23:10:07.725Z,99.90
2019-02-07T23:12:38.120Z,99.90
2019-02-07T23:15:09.239Z,99.90
2019-02-07T23:17:39.932Z,99.90
2019-02-07T23:20:11.120Z,99.90
2019-02-07T23:22:45.046Z,99.90
2019-02-07T23:25:15.508Z,99.90
2019-02-07T23:27:47.409Z,99.90
2019-02-07T23:30:19.154Z,99.90
2019-02-07T23:32:49.624Z,99.90
2019-02-07T23:35:20.047Z,99.90
2019-02-07T23:37:50.574Z,99.90
2019-02-07T23:40:21.520Z,99.90
2019-02-07T23:42:52.062Z,99.90
2019-02-07T23:45:22.524Z,99.90
2019-02-07T23:47:53.225Z,99.90
2019-02-07T23:50:23.764Z,99.90
2019-02-07T23:52:54.350Z,99.90
2019-02-07T23:55:25.127Z,99.90
2019-02-07T23:57:55.576Z,99.90
